Christiana — WDD5937 — position and weather

sailwx.info

Track history (hours):
 
Tides and Currents Weather Stations Pressure Air Temp Water Temp Dewpoint Dewpoint Depression Visibility Wind Speed Wind Dir Waves Ship Positions

Christiana

Owner: Christiana, Philadelphia, PA. More information available from US FCC via Universal Licensing System and Coast Guard Vessel Documentation Center.

Last reported at 2018-Feb-21 01:48 UTC. Time now 2018-Feb-23 10:42 UTC.
Position N 25°20' W 080°03'.

Length 172 m; draft 6.2 m.

Type: Tanker. MMSI: 367165980.

Date/timePositionNaut miles runAvg speedWind from/ knotsBaromVisibWave heightAir tempDewpointWater temp
2018-Feb-21 01:48N 25°20' W 080°03'2 7.8
2018-Feb-21 01:30N 25°22' W 080°02'5 7.7
2018-Feb-21 00:52N 25°27' W 080°02'3 8.3
2018-Feb-21 00:30N 25°30' W 080°02'4 8.6
2018-Feb-21 00:00N 25°34' W 080°02'5 9.8
2018-Feb-20 23:30N 25°39' W 080°02'510.4
2018-Feb-20 23:00N 25°44' W 080°02'510.8
2018-Feb-20 22:30N 25°49' W 080°03'510.6
2018-Feb-20 22:00N 25°55' W 080°03'510.5
2018-Feb-20 21:30N 25°60' W 080°04'510.5
2018-Feb-20 21:00N 26°05' W 080°04'510.4
2018-Feb-20 20:30N 26°10' W 080°03'5 9.8
2018-Feb-20 20:00N 26°15' W 080°03'5 9.6
2018-Feb-20 19:30N 26°20' W 080°02'510.4
2018-Feb-20 19:00N 26°25' W 080°02'510.1
2018-Feb-20 18:29N 26°30' W 080°01'17 8.6
2018-Feb-20 16:33N 26°47' W 079°59'1 7.8
2018-Feb-20 16:24N 26°48' W 079°59'3 8.3
2018-Feb-20 15:59N 26°51' W 080°00'4 9.1
2018-Feb-20 15:30N 26°55' W 080°01'5 9.5
2018-Feb-20 15:00N 27°00' W 080°02'  
2018-Feb-17 18:41N 36°49' W 075°47'2 9.3
2018-Feb-17 18:30N 36°50' W 075°48'5 9.3
2018-Feb-17 18:00N 36°52' W 075°53'5 9.2
2018-Feb-17 17:30N 36°55' W 075°57'2 4.2
2018-Feb-17 17:00N 36°57' W 075°58'4 8.3
2018-Feb-17 16:30N 36°57' W 075°53'17110.7
2018-Feb-17 00:33N 39°26' W 074°07'410.9
2018-Feb-17 00:12N 39°30' W 074°05'310.8
2018-Feb-16 23:56N 39°32' W 074°04'510.9
2018-Feb-16 23:29N 39°37' W 074°01'4310.2
2018-Feb-16 19:14N 40°20' W 073°54'2 9.1
2018-Feb-16 18:59N 40°22' W 073°54'4 8.6
2018-Feb-16 18:30N 40°26' W 073°54'4 7.3
2018-Feb-16 17:59N 40°30' W 073°56'5 9.6
2018-Feb-16 17:30N 40°32' W 074°01'5 9.6
2018-Feb-16 17:00N 40°36' W 074°03'3 5.5
2018-Feb-16 16:29N 40°39' W 074°02'0 0.2
2018-Feb-16 15:59N 40°39' W 074°02'0 0.1
2018-Feb-16 15:29N 40°39' W 074°02'0 0.0
2018-Feb-16 14:59N 40°39' W 074°02'0 0.1
2018-Feb-16 14:29N 40°39' W 074°02'0 0.0
2018-Feb-16 13:59N 40°39' W 074°02'0 0.0
2018-Feb-16 13:29N 40°39' W 074°02'0 0.0
2018-Feb-16 12:59N 40°39' W 074°02'0 0.0
2018-Feb-16 12:29N 40°39' W 074°02'0 0.0
2018-Feb-16 11:59N 40°39' W 074°02'0 0.0
2018-Feb-16 11:29N 40°39' W 074°02'0 0.1
2018-Feb-16 10:59N 40°39' W 074°02'0 0.0
2018-Feb-16 10:29N 40°39' W 074°02'0 0.2
2018-Feb-16 09:59N 40°39' W 074°02'0 0.2
2018-Feb-16 09:29N 40°39' W 074°03'0 0.1
2018-Feb-16 08:59N 40°39' W 074°03'0 0.0
2018-Feb-16 08:29N 40°39' W 074°03'0 0.0
2018-Feb-16 07:59N 40°39' W 074°03'0 0.0
2018-Feb-16 07:29N 40°39' W 074°03'0 0.0
2018-Feb-16 06:59N 40°39' W 074°03'0 0.0
2018-Feb-16 06:29N 40°39' W 074°03'0 0.0
2018-Feb-16 05:59N 40°39' W 074°03'0 0.0
2018-Feb-16 05:29N 40°39' W 074°03'0 0.0
2018-Feb-16 04:59N 40°39' W 074°03'0 0.0
2018-Feb-16 04:29N 40°39' W 074°03'0 0.0
2018-Feb-16 03:59N 40°39' W 074°03'0 0.2
2018-Feb-16 03:29N 40°39' W 074°02'0 0.2
2018-Feb-16 02:59N 40°39' W 074°02'0 0.0
2018-Feb-16 02:29N 40°39' W 074°02'0 0.0
2018-Feb-16 01:59N 40°39' W 074°02'0 0.0
2018-Feb-16 01:29N 40°39' W 074°02'0 0.0
2018-Feb-16 00:59N 40°39' W 074°02'0 0.0
2018-Feb-16 00:29N 40°39' W 074°02'0 0.0
2018-Feb-15 23:59N 40°39' W 074°02'0 0.0
2018-Feb-15 23:29N 40°39' W 074°02'0 0.1
2018-Feb-15 22:59N 40°39' W 074°03'0 0.1
2018-Feb-15 22:29N 40°39' W 074°03'0 0.2
2018-Feb-15 21:59N 40°39' W 074°03'0 0.1
2018-Feb-15 21:29N 40°39' W 074°03'0 0.0
2018-Feb-15 20:59N 40°39' W 074°03'0 0.1
2018-Feb-15 20:29N 40°39' W 074°03'0 0.0
2018-Feb-15 19:59N 40°39' W 074°03'0 0.0
2018-Feb-15 19:29N 40°39' W 074°03'0 0.0
2018-Feb-15 18:59N 40°39' W 074°03'0 0.0
2018-Feb-15 18:29N 40°39' W 074°03'0 0.0
2018-Feb-15 17:59N 40°39' W 074°03'0 0.0
2018-Feb-15 17:29N 40°39' W 074°03'0 0.0
2018-Feb-15 16:59N 40°39' W 074°03'0 0.0
2018-Feb-15 16:29N 40°39' W 074°03'0 0.1
2018-Feb-15 15:59N 40°39' W 074°03'0 0.2
2018-Feb-15 15:29N 40°39' W 074°02'0 0.1
2018-Feb-15 14:59N 40°39' W 074°02'0 0.0
2018-Feb-15 14:29N 40°39' W 074°02'0 0.1
2018-Feb-15 13:59N 40°39' W 074°02'0 0.0
2018-Feb-15 13:29N 40°39' W 074°02'0 0.0
2018-Feb-15 12:59N 40°39' W 074°02'0 0.0
2018-Feb-15 12:29N 40°39' W 074°02'0 0.0
2018-Feb-15 11:59N 40°39' W 074°02'0 0.1
2018-Feb-15 11:29N 40°39' W 074°02'0 0.0
2018-Feb-15 10:59N 40°39' W 074°03'0 0.2
2018-Feb-15 10:29N 40°39' W 074°03'0 0.2
2018-Feb-15 09:59N 40°39' W 074°03'0 0.1
2018-Feb-15 09:29N 40°39' W 074°03'0 0.0
2018-Feb-15 08:59N 40°39' W 074°03'0 0.0
2018-Feb-15 08:29N 40°39' W 074°03'0 0.0
2018-Feb-15 07:59N 40°39' W 074°03'0 0.0
2018-Feb-15 07:29N 40°39' W 074°03'0 0.0
2018-Feb-15 06:59N 40°39' W 074°03'0 0.0
2018-Feb-15 06:29N 40°39' W 074°03'0 0.1
2018-Feb-15 05:59N 40°39' W 074°03'0 0.0
2018-Feb-15 05:29N 40°39' W 074°03'0 0.0
2018-Feb-15 04:59N 40°39' W 074°03'0 0.0
2018-Feb-15 04:29N 40°39' W 074°03'0 0.0
2018-Feb-15 03:59N 40°39' W 074°03'0 0.0
2018-Feb-15 03:29N 40°39' W 074°03'0 0.1
2018-Feb-15 02:59N 40°39' W 074°02'0 0.2
2018-Feb-15 02:29N 40°39' W 074°02'0 0.0
2018-Feb-15 01:59N 40°39' W 074°02'0 0.0
2018-Feb-15 01:29N 40°39' W 074°02'0 0.0
2018-Feb-15 00:59N 40°39' W 074°02'0 0.0
2018-Feb-15 00:29N 40°39' W 074°02'0 0.0
2018-Feb-14 23:59N 40°39' W 074°02'0 0.0
2018-Feb-14 23:29N 40°39' W 074°02'0 0.0
2018-Feb-14 22:59N 40°39' W 074°02'0 0.1
2018-Feb-14 22:29N 40°39' W 074°02'0 0.1
2018-Feb-14 21:59N 40°39' W 074°03'0 0.0
2018-Feb-14 21:29N 40°39' W 074°03'0 0.3
2018-Feb-14 20:59N 40°39' W 074°02'0 0.2
2018-Feb-14 20:29N 40°39' W 074°03'0 0.1
2018-Feb-14 19:59N 40°39' W 074°03'0 0.0
2018-Feb-14 19:29N 40°39' W 074°03'0 0.0
2018-Feb-14 18:59N 40°39' W 074°03'0 0.0
2018-Feb-14 18:29N 40°39' W 074°03'0 0.0
2018-Feb-14 17:59N 40°39' W 074°03'0 0.0
2018-Feb-14 17:29N 40°39' W 074°03'0 0.1
2018-Feb-14 16:59N 40°39' W 074°03'0 0.1
2018-Feb-14 16:29N 40°39' W 074°03'0 0.0
2018-Feb-14 15:59N 40°39' W 074°03'0 0.1
2018-Feb-14 15:29N 40°39' W 074°03'0 0.2
2018-Feb-14 14:59N 40°39' W 074°02'0 0.1
2018-Feb-14 14:29N 40°39' W 074°02'0 0.1
2018-Feb-14 13:59N 40°39' W 074°02'0 0.0
2018-Feb-14 13:29N 40°39' W 074°02'0 0.1
2018-Feb-14 12:59N 40°39' W 074°02'0 0.0
2018-Feb-14 12:29N 40°39' W 074°02'0 0.1
2018-Feb-14 11:59N 40°39' W 074°02'0 0.0
2018-Feb-14 11:29N 40°39' W 074°02'0 0.0
2018-Feb-14 10:59N 40°39' W 074°02'0 0.1
2018-Feb-14 10:29N 40°39' W 074°02'0 0.0
2018-Feb-14 09:59N 40°39' W 074°03'0 0.0
2018-Feb-14 09:29N 40°39' W 074°02'0 0.2
2018-Feb-14 08:59N 40°39' W 074°02'0 0.1
2018-Feb-14 08:29N 40°39' W 074°03'0 0.0
2018-Feb-14 07:59N 40°39' W 074°03'0 0.1
2018-Feb-14 07:29N 40°39' W 074°03'0 0.0
2018-Feb-14 06:59N 40°39' W 074°03'0 0.0
2018-Feb-14 06:29N 40°39' W 074°03'0 0.0
2018-Feb-14 05:59N 40°39' W 074°03'0 0.0
2018-Feb-14 05:29N 40°39' W 074°03'0 0.0
2018-Feb-14 04:59N 40°39' W 074°03'0 0.0
2018-Feb-14 04:29N 40°39' W 074°03'0 0.0
2018-Feb-14 03:59N 40°39' W 074°03'0 0.0
2018-Feb-14 03:29N 40°39' W 074°03'0 0.1
2018-Feb-14 02:59N 40°39' W 074°03'0 0.3
2018-Feb-14 02:29N 40°39' W 074°02'0 0.1
2018-Feb-14 01:59N 40°39' W 074°02'0 0.0
2018-Feb-14 01:29N 40°39' W 074°02'0 0.0
2018-Feb-14 00:59N 40°39' W 074°02'0 0.0
2018-Feb-14 00:29N 40°39' W 074°02'0 0.1
2018-Feb-13 23:59N 40°39' W 074°02'0 0.0
2018-Feb-13 23:29N 40°39' W 074°03'0 0.0
2018-Feb-13 22:59N 40°39' W 074°03'0 0.0
2018-Feb-13 22:29N 40°39' W 074°03'0 0.0
2018-Feb-13 21:59N 40°39' W 074°03'0 0.2
2018-Feb-13 21:29N 40°39' W 074°03'0 0.3
2018-Feb-13 20:59N 40°39' W 074°03'1 1.7
2018-Feb-13 20:30N 40°40' W 074°03'612.4
2018-Feb-13 20:00N 40°46' W 074°01'3 6.7
2018-Feb-13 19:30N 40°49' W 073°58'0 0.0
2018-Feb-13 19:00N 40°49' W 073°58'0 0.0
2018-Feb-13 18:26N 40°49' W 073°58'0 0.0
2018-Feb-13 18:00N 40°49' W 073°58'0 0.0
2018-Feb-13 17:29N 40°49' W 073°58'0 0.0
2018-Feb-13 16:59N 40°49' W 073°58'0 0.0
2018-Feb-13 16:29N 40°49' W 073°58'0 0.0
2018-Feb-13 16:00N 40°49' W 073°58'0 0.4
2018-Feb-13 15:29N 40°49' W 073°58'0 0.2
2018-Feb-13 14:59N 40°49' W 073°58'0 0.0
2018-Feb-13 14:29N 40°49' W 073°58'0 0.0
2018-Feb-13 13:59N 40°49' W 073°58'0 0.0
2018-Feb-13 13:30N 40°49' W 073°58'0 0.0
2018-Feb-13 12:59N 40°49' W 073°58'0 0.0
2018-Feb-13 12:29N 40°49' W 073°58'0 0.0
2018-Feb-13 11:59N 40°49' W 073°58'0 0.0
2018-Feb-13 11:29N 40°49' W 073°58'0 0.0
2018-Feb-13 10:59N 40°49' W 073°58'0 0.3
2018-Feb-13 10:29N 40°49' W 073°58'0 0.2
2018-Feb-13 09:59N 40°49' W 073°58'0 0.0
2018-Feb-13 09:29N 40°49' W 073°58'0 0.0
2018-Feb-13 08:59N 40°49' W 073°58'0 0.0
2018-Feb-13 08:29N 40°49' W 073°58'0 0.0
2018-Feb-13 07:59N 40°49' W 073°58'0 0.0
2018-Feb-13 07:29N 40°49' W 073°58'0 0.0
2018-Feb-13 06:59N 40°49' W 073°58'0 0.0
2018-Feb-13 06:29N 40°49' W 073°58'0 0.0
2018-Feb-13 05:59N 40°49' W 073°58'0 0.0
2018-Feb-13 05:29N 40°49' W 073°58'0 0.0
2018-Feb-13 04:59N 40°49' W 073°58'0 0.0
2018-Feb-13 04:29N 40°49' W 073°58'0 0.0
2018-Feb-13 03:59N 40°49' W 073°58'0 0.0
2018-Feb-13 03:26N 40°49' W 073°58'0 0.0
2018-Feb-13 02:59N 40°49' W 073°58'0 0.1
2018-Feb-13 02:29N 40°49' W 073°58'0 0.3
2018-Feb-13 01:59N 40°49' W 073°58'0 0.1
2018-Feb-13 01:29N 40°49' W 073°58'0 0.0
2018-Feb-13 00:59N 40°49' W 073°58'0 0.0
2018-Feb-13 00:29N 40°49' W 073°58'0 0.0
2018-Feb-12 23:59N 40°49' W 073°58'0 0.0
2018-Feb-12 23:26N 40°49' W 073°58'0 0.1
2018-Feb-12 22:59N 40°49' W 073°58'0 0.2
2018-Feb-12 22:29N 40°49' W 073°58'0 0.2
2018-Feb-12 21:59N 40°49' W 073°58'0 0.0
2018-Feb-12 21:29N 40°49' W 073°58'0 0.0
2018-Feb-12 20:56N 40°49' W 073°58'0 0.0
2018-Feb-12 20:29N 40°49' W 073°58'0 0.0
2018-Feb-12 19:59N 40°49' W 073°58'0 0.0
2018-Feb-12 19:29N 40°49' W 073°58'0 0.0
2018-Feb-12 18:59N 40°49' W 073°58'0 0.0
2018-Feb-12 18:29N 40°49' W 073°58'0 0.0
2018-Feb-12 17:56N 40°49' W 073°58'0 0.0
2018-Feb-12 17:26N 40°49' W 073°58'0 0.0
2018-Feb-12 16:59N 40°49' W 073°58'0 0.0
2018-Feb-12 16:29N 40°49' W 073°58'0 0.0
2018-Feb-12 15:59N 40°49' W 073°58'0 0.0
2018-Feb-12 15:17N 40°49' W 073°58'0 0.0
2018-Feb-12 14:59N 40°49' W 073°58'0 0.0
2018-Feb-12 14:29N 40°49' W 073°58'0 0.2
2018-Feb-12 13:59N 40°49' W 073°58'0 0.3
2018-Feb-12 13:29N 40°49' W 073°58'0 0.1
2018-Feb-12 12:59N 40°49' W 073°58'0 0.0
2018-Feb-12 12:29N 40°49' W 073°58'0 0.0
2018-Feb-12 11:59N 40°49' W 073°58'0 0.0
2018-Feb-12 11:29N 40°49' W 073°58'0 0.0
2018-Feb-12 10:59N 40°49' W 073°58'0 0.0
2018-Feb-12 10:29N 40°49' W 073°58'0 0.0
2018-Feb-12 09:59N 40°49' W 073°58'0 0.1
2018-Feb-12 09:29N 40°49' W 073°58'0 0.2
2018-Feb-12 08:59N 40°49' W 073°58'0 0.2
2018-Feb-12 08:29N 40°49' W 073°58'0 0.0
2018-Feb-12 07:59N 40°49' W 073°58'0 0.0
2018-Feb-12 07:29N 40°49' W 073°58'0 0.0
2018-Feb-12 06:59N 40°49' W 073°58'0 0.0
2018-Feb-12 06:29N 40°49' W 073°58'0 0.0
2018-Feb-12 05:59N 40°49' W 073°58'0 0.0
2018-Feb-12 05:29N 40°49' W 073°58'0 0.0
2018-Feb-12 04:59N 40°49' W 073°58'0 0.0
2018-Feb-12 04:29N 40°49' W 073°58'0 0.0
2018-Feb-12 03:59N 40°49' W 073°58'0 0.0
2018-Feb-12 03:29N 40°49' W 073°58'0 0.0
2018-Feb-12 02:59N 40°49' W 073°58'0 0.0
2018-Feb-12 02:29N 40°49' W 073°58'0 0.3
2018-Feb-12 01:59N 40°49' W 073°58'0 0.2
2018-Feb-12 01:29N 40°49' W 073°58'0 0.0
2018-Feb-12 00:56N 40°49' W 073°58'0 0.0
2018-Feb-12 00:29N 40°49' W 073°58'0 0.0
2018-Feb-11 23:59N 40°49' W 073°58'0 0.0
2018-Feb-11 23:29N 40°49' W 073°58'0 0.0
2018-Feb-11 22:56N 40°49' W 073°58'0 0.0
2018-Feb-11 22:29N 40°49' W 073°58'0 0.1
2018-Feb-11 21:59N 40°49' W 073°58'0 0.3
2018-Feb-11 21:29N 40°49' W 073°58'0 0.2
2018-Feb-11 20:59N 40°49' W 073°58'0 0.1
2018-Feb-11 20:29N 40°49' W 073°58'0 0.0
2018-Feb-11 19:59N 40°49' W 073°58'0 0.0
2018-Feb-11 19:26N 40°49' W 073°58'0 0.0
2018-Feb-11 18:59N 40°49' W 073°58'0 0.0
2018-Feb-11 18:29N 40°49' W 073°58'0 0.0
2018-Feb-11 17:59N 40°49' W 073°58'0 0.0
2018-Feb-11 17:29N 40°49' W 073°58'0 0.0
2018-Feb-11 16:59N 40°49' W 073°58'0 0.0
2018-Feb-11 16:29N 40°49' W 073°58'0 0.1
2018-Feb-11 15:56N 40°49' W 073°58'0 0.0
2018-Feb-11 15:29N 40°49' W 073°58'0 0.0
2018-Feb-11 14:56N 40°49' W 073°58'0 0.0
2018-Feb-11 14:29N 40°49' W 073°58'0 0.0
2018-Feb-11 13:59N 40°49' W 073°58'0 0.3
2018-Feb-11 13:29N 40°49' W 073°58'0 0.1
2018-Feb-11 12:56N 40°49' W 073°58'0 0.1
2018-Feb-11 12:29N 40°49' W 073°58'0 0.0
2018-Feb-11 11:56N 40°49' W 073°58'0 0.0
2018-Feb-11 11:29N 40°49' W 073°58'0 0.0
2018-Feb-11 10:59N 40°49' W 073°58'0 0.0
2018-Feb-11 10:29N 40°49' W 073°58'0 0.0
2018-Feb-11 09:59N 40°49' W 073°58'0 0.0
2018-Feb-11 09:29N 40°49' W 073°58'0 0.0
2018-Feb-11 08:59N 40°49' W 073°58'0 0.2
2018-Feb-11 08:29N 40°49' W 073°58'0 0.3
2018-Feb-11 07:59N 40°49' W 073°58'0 0.0
2018-Feb-11 07:29N 40°49' W 073°58'0 0.0
2018-Feb-11 06:59N 40°49' W 073°58'0 0.0
2018-Feb-11 06:29N 40°49' W 073°58'0 0.0
2018-Feb-11 05:59N 40°49' W 073°58'0 0.0
2018-Feb-11 05:29N 40°49' W 073°58'0 0.0
2018-Feb-11 04:59N 40°49' W 073°58'0 0.0
2018-Feb-11 04:29N 40°49' W 073°58'0 0.0
2018-Feb-11 03:59N 40°49' W 073°58'0 0.0
2018-Feb-11 03:29N 40°49' W 073°58'0 0.0
2018-Feb-11 02:59N 40°49' W 073°58'0 0.0
2018-Feb-11 02:29N 40°49' W 073°58'0 0.1
2018-Feb-11 01:59N 40°49' W 073°58'  
Track history (hours):
 
Tides and Currents Weather Stations Pressure Air Temp Water Temp Dewpoint Dewpoint Depression Visibility Wind Speed Wind Dir Waves Ship Positions

Christiana

Owner: Christiana, Philadelphia, PA. More information available from US FCC via Universal Licensing System and Coast Guard Vessel Documentation Center.

Last reported at 2018-Feb-21 01:48 UTC. Time now 2018-Feb-23 10:42 UTC.
Position N 25°20' W 080°03'.

Length 172 m; draft 6.2 m.

Type: Tanker. MMSI: 367165980.

Date/timePositionNaut miles runAvg speedWind from/ knotsBaromVisibWave heightAir tempDewpointWater temp
2018-Feb-21 01:48N 25°20' W 080°03'2 7.8
2018-Feb-21 01:30N 25°22' W 080°02'5 7.7
2018-Feb-21 00:52N 25°27' W 080°02'3 8.3
2018-Feb-21 00:30N 25°30' W 080°02'4 8.6
2018-Feb-21 00:00N 25°34' W 080°02'5 9.8
2018-Feb-20 23:30N 25°39' W 080°02'510.4
2018-Feb-20 23:00N 25°44' W 080°02'510.8
2018-Feb-20 22:30N 25°49' W 080°03'510.6
2018-Feb-20 22:00N 25°55' W 080°03'510.5
2018-Feb-20 21:30N 25°60' W 080°04'510.5
2018-Feb-20 21:00N 26°05' W 080°04'510.4
2018-Feb-20 20:30N 26°10' W 080°03'5 9.8
2018-Feb-20 20:00N 26°15' W 080°03'5 9.6
2018-Feb-20 19:30N 26°20' W 080°02'510.4
2018-Feb-20 19:00N 26°25' W 080°02'510.1
2018-Feb-20 18:29N 26°30' W 080°01'17 8.6
2018-Feb-20 16:33N 26°47' W 079°59'1 7.8
2018-Feb-20 16:24N 26°48' W 079°59'3 8.3
2018-Feb-20 15:59N 26°51' W 080°00'4 9.1
2018-Feb-20 15:30N 26°55' W 080°01'5 9.5
2018-Feb-20 15:00N 27°00' W 080°02'  
2018-Feb-17 18:41N 36°49' W 075°47'2 9.3
2018-Feb-17 18:30N 36°50' W 075°48'5 9.3
2018-Feb-17 18:00N 36°52' W 075°53'5 9.2
2018-Feb-17 17:30N 36°55' W 075°57'2 4.2
2018-Feb-17 17:00N 36°57' W 075°58'4 8.3
2018-Feb-17 16:30N 36°57' W 075°53'17110.7
2018-Feb-17 00:33N 39°26' W 074°07'410.9
2018-Feb-17 00:12N 39°30' W 074°05'310.8
2018-Feb-16 23:56N 39°32' W 074°04'510.9
2018-Feb-16 23:29N 39°37' W 074°01'4310.2
2018-Feb-16 19:14N 40°20' W 073°54'2 9.1
2018-Feb-16 18:59N 40°22' W 073°54'4 8.6
2018-Feb-16 18:30N 40°26' W 073°54'4 7.3
2018-Feb-16 17:59N 40°30' W 073°56'5 9.6
2018-Feb-16 17:30N 40°32' W 074°01'5 9.6
2018-Feb-16 17:00N 40°36' W 074°03'3 5.5
2018-Feb-16 16:29N 40°39' W 074°02'0 0.2
2018-Feb-16 15:59N 40°39' W 074°02'0 0.1
2018-Feb-16 15:29N 40°39' W 074°02'0 0.0
2018-Feb-16 14:59N 40°39' W 074°02'0 0.1
2018-Feb-16 14:29N 40°39' W 074°02'0 0.0
2018-Feb-16 13:59N 40°39' W 074°02'0 0.0
2018-Feb-16 13:29N 40°39' W 074°02'0 0.0
2018-Feb-16 12:59N 40°39' W 074°02'0 0.0
2018-Feb-16 12:29N 40°39' W 074°02'0 0.0
2018-Feb-16 11:59N 40°39' W 074°02'0 0.0
2018-Feb-16 11:29N 40°39' W 074°02'0 0.1
2018-Feb-16 10:59N 40°39' W 074°02'0 0.0
2018-Feb-16 10:29N 40°39' W 074°02'0 0.2
2018-Feb-16 09:59N 40°39' W 074°02'0 0.2
2018-Feb-16 09:29N 40°39' W 074°03'0 0.1
2018-Feb-16 08:59N 40°39' W 074°03'0 0.0
2018-Feb-16 08:29N 40°39' W 074°03'0 0.0
2018-Feb-16 07:59N 40°39' W 074°03'0 0.0
2018-Feb-16 07:29N 40°39' W 074°03'0 0.0
2018-Feb-16 06:59N 40°39' W 074°03'0 0.0
2018-Feb-16 06:29N 40°39' W 074°03'0 0.0
2018-Feb-16 05:59N 40°39' W 074°03'0 0.0
2018-Feb-16 05:29N 40°39' W 074°03'0 0.0
2018-Feb-16 04:59N 40°39' W 074°03'0 0.0
2018-Feb-16 04:29N 40°39' W 074°03'0 0.0
2018-Feb-16 03:59N 40°39' W 074°03'0 0.2
2018-Feb-16 03:29N 40°39' W 074°02'0 0.2
2018-Feb-16 02:59N 40°39' W 074°02'0 0.0
2018-Feb-16 02:29N 40°39' W 074°02'0 0.0
2018-Feb-16 01:59N 40°39' W 074°02'0 0.0
2018-Feb-16 01:29N 40°39' W 074°02'0 0.0
2018-Feb-16 00:59N 40°39' W 074°02'0 0.0
2018-Feb-16 00:29N 40°39' W 074°02'0 0.0
2018-Feb-15 23:59N 40°39' W 074°02'0 0.0
2018-Feb-15 23:29N 40°39' W 074°02'0 0.1
2018-Feb-15 22:59N 40°39' W 074°03'0 0.1
2018-Feb-15 22:29N 40°39' W 074°03'0 0.2
2018-Feb-15 21:59N 40°39' W 074°03'0 0.1
2018-Feb-15 21:29N 40°39' W 074°03'0 0.0
2018-Feb-15 20:59N 40°39' W 074°03'0 0.1
2018-Feb-15 20:29N 40°39' W 074°03'0 0.0
2018-Feb-15 19:59N 40°39' W 074°03'0 0.0
2018-Feb-15 19:29N 40°39' W 074°03'0 0.0
2018-Feb-15 18:59N 40°39' W 074°03'0 0.0
2018-Feb-15 18:29N 40°39' W 074°03'0 0.0
2018-Feb-15 17:59N 40°39' W 074°03'0 0.0
2018-Feb-15 17:29N 40°39' W 074°03'0 0.0
2018-Feb-15 16:59N 40°39' W 074°03'0 0.0
2018-Feb-15 16:29N 40°39' W 074°03'0 0.1
2018-Feb-15 15:59N 40°39' W 074°03'0 0.2
2018-Feb-15 15:29N 40°39' W 074°02'0 0.1
2018-Feb-15 14:59N 40°39' W 074°02'0 0.0
2018-Feb-15 14:29N 40°39' W 074°02'0 0.1
2018-Feb-15 13:59N 40°39' W 074°02'0 0.0
2018-Feb-15 13:29N 40°39' W 074°02'0 0.0
2018-Feb-15 12:59N 40°39' W 074°02'0 0.0
2018-Feb-15 12:29N 40°39' W 074°02'0 0.0
2018-Feb-15 11:59N 40°39' W 074°02'0 0.1
2018-Feb-15 11:29N 40°39' W 074°02'0 0.0
2018-Feb-15 10:59N 40°39' W 074°03'0 0.2
2018-Feb-15 10:29N 40°39' W 074°03'0 0.2
2018-Feb-15 09:59N 40°39' W 074°03'0 0.1
2018-Feb-15 09:29N 40°39' W 074°03'0 0.0
2018-Feb-15 08:59N 40°39' W 074°03'0 0.0
2018-Feb-15 08:29N 40°39' W 074°03'0 0.0
2018-Feb-15 07:59N 40°39' W 074°03'0 0.0
2018-Feb-15 07:29N 40°39' W 074°03'0 0.0
2018-Feb-15 06:59N 40°39' W 074°03'0 0.0
2018-Feb-15 06:29N 40°39' W 074°03'0 0.1
2018-Feb-15 05:59N 40°39' W 074°03'0 0.0
2018-Feb-15 05:29N 40°39' W 074°03'0 0.0
2018-Feb-15 04:59N 40°39' W 074°03'0 0.0
2018-Feb-15 04:29N 40°39' W 074°03'0 0.0
2018-Feb-15 03:59N 40°39' W 074°03'0 0.0
2018-Feb-15 03:29N 40°39' W 074°03'0 0.1
2018-Feb-15 02:59N 40°39' W 074°02'0 0.2
2018-Feb-15 02:29N 40°39' W 074°02'0 0.0
2018-Feb-15 01:59N 40°39' W 074°02'0 0.0
2018-Feb-15 01:29N 40°39' W 074°02'0 0.0
2018-Feb-15 00:59N 40°39' W 074°02'0 0.0
2018-Feb-15 00:29N 40°39' W 074°02'0 0.0
2018-Feb-14 23:59N 40°39' W 074°02'0 0.0
2018-Feb-14 23:29N 40°39' W 074°02'0 0.0
2018-Feb-14 22:59N 40°39' W 074°02'0 0.1
2018-Feb-14 22:29N 40°39' W 074°02'0 0.1
2018-Feb-14 21:59N 40°39' W 074°03'0 0.0
2018-Feb-14 21:29N 40°39' W 074°03'0 0.3
2018-Feb-14 20:59N 40°39' W 074°02'0 0.2
2018-Feb-14 20:29N 40°39' W 074°03'0 0.1
2018-Feb-14 19:59N 40°39' W 074°03'0 0.0
2018-Feb-14 19:29N 40°39' W 074°03'0 0.0
2018-Feb-14 18:59N 40°39' W 074°03'0 0.0
2018-Feb-14 18:29N 40°39' W 074°03'0 0.0
2018-Feb-14 17:59N 40°39' W 074°03'0 0.0
2018-Feb-14 17:29N 40°39' W 074°03'0 0.1
2018-Feb-14 16:59N 40°39' W 074°03'0 0.1
2018-Feb-14 16:29N 40°39' W 074°03'0 0.0
2018-Feb-14 15:59N 40°39' W 074°03'0 0.1
2018-Feb-14 15:29N 40°39' W 074°03'0 0.2
2018-Feb-14 14:59N 40°39' W 074°02'0 0.1
2018-Feb-14 14:29N 40°39' W 074°02'0 0.1
2018-Feb-14 13:59N 40°39' W 074°02'0 0.0
2018-Feb-14 13:29N 40°39' W 074°02'0 0.1
2018-Feb-14 12:59N 40°39' W 074°02'0 0.0
2018-Feb-14 12:29N 40°39' W 074°02'0 0.1
2018-Feb-14 11:59N 40°39' W 074°02'0 0.0
2018-Feb-14 11:29N 40°39' W 074°02'0 0.0
2018-Feb-14 10:59N 40°39' W 074°02'0 0.1
2018-Feb-14 10:29N 40°39' W 074°02'0 0.0
2018-Feb-14 09:59N 40°39' W 074°03'0 0.0
2018-Feb-14 09:29N 40°39' W 074°02'0 0.2
2018-Feb-14 08:59N 40°39' W 074°02'0 0.1
2018-Feb-14 08:29N 40°39' W 074°03'0 0.0
2018-Feb-14 07:59N 40°39' W 074°03'0 0.1
2018-Feb-14 07:29N 40°39' W 074°03'0 0.0
2018-Feb-14 06:59N 40°39' W 074°03'0 0.0
2018-Feb-14 06:29N 40°39' W 074°03'0 0.0
2018-Feb-14 05:59N 40°39' W 074°03'0 0.0
2018-Feb-14 05:29N 40°39' W 074°03'0 0.0
2018-Feb-14 04:59N 40°39' W 074°03'0 0.0
2018-Feb-14 04:29N 40°39' W 074°03'0 0.0
2018-Feb-14 03:59N 40°39' W 074°03'0 0.0
2018-Feb-14 03:29N 40°39' W 074°03'0 0.1
2018-Feb-14 02:59N 40°39' W 074°03'0 0.3
2018-Feb-14 02:29N 40°39' W 074°02'0 0.1
2018-Feb-14 01:59N 40°39' W 074°02'0 0.0
2018-Feb-14 01:29N 40°39' W 074°02'0 0.0
2018-Feb-14 00:59N 40°39' W 074°02'0 0.0
2018-Feb-14 00:29N 40°39' W 074°02'0 0.1
2018-Feb-13 23:59N 40°39' W 074°02'0 0.0
2018-Feb-13 23:29N 40°39' W 074°03'0 0.0
2018-Feb-13 22:59N 40°39' W 074°03'0 0.0
2018-Feb-13 22:29N 40°39' W 074°03'0 0.0
2018-Feb-13 21:59N 40°39' W 074°03'0 0.2
2018-Feb-13 21:29N 40°39' W 074°03'0 0.3
2018-Feb-13 20:59N 40°39' W 074°03'1 1.7
2018-Feb-13 20:30N 40°40' W 074°03'612.4
2018-Feb-13 20:00N 40°46' W 074°01'3 6.7
2018-Feb-13 19:30N 40°49' W 073°58'0 0.0
2018-Feb-13 19:00N 40°49' W 073°58'0 0.0
2018-Feb-13 18:26N 40°49' W 073°58'0 0.0
2018-Feb-13 18:00N 40°49' W 073°58'0 0.0
2018-Feb-13 17:29N 40°49' W 073°58'0 0.0
2018-Feb-13 16:59N 40°49' W 073°58'0 0.0
2018-Feb-13 16:29N 40°49' W 073°58'0 0.0
2018-Feb-13 16:00N 40°49' W 073°58'0 0.4
2018-Feb-13 15:29N 40°49' W 073°58'0 0.2
2018-Feb-13 14:59N 40°49' W 073°58'0 0.0
2018-Feb-13 14:29N 40°49' W 073°58'0 0.0
2018-Feb-13 13:59N 40°49' W 073°58'0 0.0
2018-Feb-13 13:30N 40°49' W 073°58'0 0.0
2018-Feb-13 12:59N 40°49' W 073°58'0 0.0
2018-Feb-13 12:29N 40°49' W 073°58'0 0.0
2018-Feb-13 11:59N 40°49' W 073°58'0 0.0
2018-Feb-13 11:29N 40°49' W 073°58'0 0.0
2018-Feb-13 10:59N 40°49' W 073°58'0 0.3
2018-Feb-13 10:29N 40°49' W 073°58'0 0.2
2018-Feb-13 09:59N 40°49' W 073°58'0 0.0
2018-Feb-13 09:29N 40°49' W 073°58'0 0.0
2018-Feb-13 08:59N 40°49' W 073°58'0 0.0
2018-Feb-13 08:29N 40°49' W 073°58'0 0.0
2018-Feb-13 07:59N 40°49' W 073°58'0 0.0
2018-Feb-13 07:29N 40°49' W 073°58'0 0.0
2018-Feb-13 06:59N 40°49' W 073°58'0 0.0
2018-Feb-13 06:29N 40°49' W 073°58'0 0.0
2018-Feb-13 05:59N 40°49' W 073°58'0 0.0
2018-Feb-13 05:29N 40°49' W 073°58'0 0.0
2018-Feb-13 04:59N 40°49' W 073°58'0 0.0
2018-Feb-13 04:29N 40°49' W 073°58'0 0.0
2018-Feb-13 03:59N 40°49' W 073°58'0 0.0
2018-Feb-13 03:26N 40°49' W 073°58'0 0.0
2018-Feb-13 02:59N 40°49' W 073°58'0 0.1
2018-Feb-13 02:29N 40°49' W 073°58'0 0.3
2018-Feb-13 01:59N 40°49' W 073°58'0 0.1
2018-Feb-13 01:29N 40°49' W 073°58'0 0.0
2018-Feb-13 00:59N 40°49' W 073°58'0 0.0
2018-Feb-13 00:29N 40°49' W 073°58'0 0.0
2018-Feb-12 23:59N 40°49' W 073°58'0 0.0
2018-Feb-12 23:26N 40°49' W 073°58'0 0.1
2018-Feb-12 22:59N 40°49' W 073°58'0 0.2
2018-Feb-12 22:29N 40°49' W 073°58'0 0.2
2018-Feb-12 21:59N 40°49' W 073°58'0 0.0
2018-Feb-12 21:29N 40°49' W 073°58'0 0.0
2018-Feb-12 20:56N 40°49' W 073°58'0 0.0
2018-Feb-12 20:29N 40°49' W 073°58'0 0.0
2018-Feb-12 19:59N 40°49' W 073°58'0 0.0
2018-Feb-12 19:29N 40°49' W 073°58'0 0.0
2018-Feb-12 18:59N 40°49' W 073°58'0 0.0
2018-Feb-12 18:29N 40°49' W 073°58'0 0.0
2018-Feb-12 17:56N 40°49' W 073°58'0 0.0
2018-Feb-12 17:26N 40°49' W 073°58'0 0.0
2018-Feb-12 16:59N 40°49' W 073°58'0 0.0
2018-Feb-12 16:29N 40°49' W 073°58'0 0.0
2018-Feb-12 15:59N 40°49' W 073°58'0 0.0
2018-Feb-12 15:17N 40°49' W 073°58'0 0.0
2018-Feb-12 14:59N 40°49' W 073°58'0 0.0
2018-Feb-12 14:29N 40°49' W 073°58'0 0.2
2018-Feb-12 13:59N 40°49' W 073°58'0 0.3
2018-Feb-12 13:29N 40°49' W 073°58'0 0.1
2018-Feb-12 12:59N 40°49' W 073°58'0 0.0
2018-Feb-12 12:29N 40°49' W 073°58'0 0.0
2018-Feb-12 11:59N 40°49' W 073°58'0 0.0
2018-Feb-12 11:29N 40°49' W 073°58'0 0.0
2018-Feb-12 10:59N 40°49' W 073°58'0 0.0
2018-Feb-12 10:29N 40°49' W 073°58'0 0.0
2018-Feb-12 09:59N 40°49' W 073°58'0 0.1
2018-Feb-12 09:29N 40°49' W 073°58'0 0.2
2018-Feb-12 08:59N 40°49' W 073°58'0 0.2
2018-Feb-12 08:29N 40°49' W 073°58'0 0.0
2018-Feb-12 07:59N 40°49' W 073°58'0 0.0
2018-Feb-12 07:29N 40°49' W 073°58'0 0.0
2018-Feb-12 06:59N 40°49' W 073°58'0 0.0
2018-Feb-12 06:29N 40°49' W 073°58'0 0.0
2018-Feb-12 05:59N 40°49' W 073°58'0 0.0
2018-Feb-12 05:29N 40°49' W 073°58'0 0.0
2018-Feb-12 04:59N 40°49' W 073°58'0 0.0
2018-Feb-12 04:29N 40°49' W 073°58'0 0.0
2018-Feb-12 03:59N 40°49' W 073°58'0 0.0
2018-Feb-12 03:29N 40°49' W 073°58'0 0.0
2018-Feb-12 02:59N 40°49' W 073°58'0 0.0
2018-Feb-12 02:29N 40°49' W 073°58'0 0.3
2018-Feb-12 01:59N 40°49' W 073°58'0 0.2
2018-Feb-12 01:29N 40°49' W 073°58'0 0.0
2018-Feb-12 00:56N 40°49' W 073°58'0 0.0
2018-Feb-12 00:29N 40°49' W 073°58'0 0.0
2018-Feb-11 23:59N 40°49' W 073°58'0 0.0
2018-Feb-11 23:29N 40°49' W 073°58'0 0.0
2018-Feb-11 22:56N 40°49' W 073°58'0 0.0
2018-Feb-11 22:29N 40°49' W 073°58'0 0.1
2018-Feb-11 21:59N 40°49' W 073°58'0 0.3
2018-Feb-11 21:29N 40°49' W 073°58'0 0.2
2018-Feb-11 20:59N 40°49' W 073°58'0 0.1
2018-Feb-11 20:29N 40°49' W 073°58'0 0.0
2018-Feb-11 19:59N 40°49' W 073°58'0 0.0
2018-Feb-11 19:26N 40°49' W 073°58'0 0.0
2018-Feb-11 18:59N 40°49' W 073°58'0 0.0
2018-Feb-11 18:29N 40°49' W 073°58'0 0.0
2018-Feb-11 17:59N 40°49' W 073°58'0 0.0
2018-Feb-11 17:29N 40°49' W 073°58'0 0.0
2018-Feb-11 16:59N 40°49' W 073°58'0 0.0
2018-Feb-11 16:29N 40°49' W 073°58'0 0.1
2018-Feb-11 15:56N 40°49' W 073°58'0 0.0
2018-Feb-11 15:29N 40°49' W 073°58'0 0.0
2018-Feb-11 14:56N 40°49' W 073°58'0 0.0
2018-Feb-11 14:29N 40°49' W 073°58'0 0.0
2018-Feb-11 13:59N 40°49' W 073°58'0 0.3
2018-Feb-11 13:29N 40°49' W 073°58'0 0.1
2018-Feb-11 12:56N 40°49' W 073°58'0 0.1
2018-Feb-11 12:29N 40°49' W 073°58'0 0.0
2018-Feb-11 11:56N 40°49' W 073°58'0 0.0
2018-Feb-11 11:29N 40°49' W 073°58'0 0.0
2018-Feb-11 10:59N 40°49' W 073°58'0 0.0
2018-Feb-11 10:29N 40°49' W 073°58'0 0.0
2018-Feb-11 09:59N 40°49' W 073°58'0 0.0
2018-Feb-11 09:29N 40°49' W 073°58'0 0.0
2018-Feb-11 08:59N 40°49' W 073°58'0 0.2
2018-Feb-11 08:29N 40°49' W 073°58'0 0.3
2018-Feb-11 07:59N 40°49' W 073°58'0 0.0
2018-Feb-11 07:29N 40°49' W 073°58'0 0.0
2018-Feb-11 06:59N 40°49' W 073°58'0 0.0
2018-Feb-11 06:29N 40°49' W 073°58'0 0.0
2018-Feb-11 05:59N 40°49' W 073°58'0 0.0
2018-Feb-11 05:29N 40°49' W 073°58'0 0.0
2018-Feb-11 04:59N 40°49' W 073°58'0 0.0
2018-Feb-11 04:29N 40°49' W 073°58'0 0.0
2018-Feb-11 03:59N 40°49' W 073°58'0 0.0
2018-Feb-11 03:29N 40°49' W 073°58'0 0.0
2018-Feb-11 02:59N 40°49' W 073°58'0 0.0
2018-Feb-11 02:29N 40°49' W 073°58'0 0.1
2018-Feb-11 01:59N 40°49' W 073°58'  

Dump ship's entire track history